sensor_id;sensor_type;location;lat;lon;timestamp;temperature;humidity
61400;DHT22;47269;48.182;-1.946;2023-02-12T06:00:05;1.70;99.90
61400;DHT22;47269;48.182;-1.946;2023-02-12T06:02:33;1.70;99.90
61400;DHT22;47269;48.182;-1.946;2023-02-12T06:04:59;1.70;99.90
61400;DHT22;47269;48.182;-1.946;2023-02-12T06:07:25;1.60;99.90
61400;DHT22;47269;48.182;-1.946;2023-02-12T06:09:50;1.60;99.90
61400;DHT22;47269;48.182;-1.946;2023-02-12T06:12:16;1.60;99.90
61400;DHT22;47269;48.182;-1.946;2023-02-12T06:14:42;1.60;99.90
61400;DHT22;47269;48.182;-1.946;2023-02-12T06:17:08;1.60;99.90
61400;DHT22;47269;48.182;-1.946;2023-02-12T06:19:33;1.60;99.90
61400;DHT22;47269;48.182;-1.946;2023-02-12T06:21:59;1.60;99.90
61400;DHT22;47269;48.182;-1.946;2023-02-12T06:24:24;1.60;99.90
61400;DHT22;47269;48.182;-1.946;2023-02-12T06:26:51;1.60;99.90
61400;DHT22;47269;48.182;-1.946;2023-02-12T06:29:20;1.70;99.90
61400;DHT22;47269;48.182;-1.946;2023-02-12T06:31:46;1.70;99.90
61400;DHT22;47269;48.182;-1.946;2023-02-12T06:34:14;1.70;99.90
61400;DHT22;47269;48.182;-1.946;2023-02-12T06:36:44;1.60;99.90
61400;DHT22;47269;48.182;-1.946;2023-02-12T06:39:11;1.70;99.90
61400;DHT22;47269;48.182;-1.946;2023-02-12T06:41:37;1.70;99.90
61400;DHT22;47269;48.182;-1.946;2023-02-12T06:44:04;1.70;99.90
61400;DHT22;47269;48.182;-1.946;2023-02-12T06:46:30;1.70;99.90
61400;DHT22;47269;48.182;-1.946;2023-02-12T06:48:57;1.80;99.90
61400;DHT22;47269;48.182;-1.946;2023-02-12T06:51:24;1.80;99.90
61400;DHT22;47269;48.182;-1.946;2023-02-12T06:53:51;1.90;99.90
61400;DHT22;47269;48.182;-1.946;2023-02-12T06:56:18;1.90;99.90
61400;DHT22;47269;48.182;-1.946;2023-02-12T06:58:45;1.90;99.90
61400;DHT22;47269;48.182;-1.946;2023-02-12T07:01:16;2.00;99.90
61400;DHT22;47269;48.182;-1.946;2023-02-12T07:03:54;2.00;99.90
61400;DHT22;47269;48.182;-1.946;2023-02-12T07:06:21;2.00;99.90
61400;DHT22;47269;48.182;-1.946;2023-02-12T07:08:47;2.00;99.90
61400;DHT22;47269;48.182;-1.946;2023-02-12T07:11:13;2.00;99.90
61400;DHT22;47269;48.182;-1.946;2023-02-12T07:13:42;1.90;99.90
61400;DHT22;47269;48.182;-1.946;2023-02-12T07:16:14;1.70;99.90
61400;DHT22;47269;48.182;-1.946;2023-02-12T07:18:41;1.50;99.90
61400;DHT22;47269;48.182;-1.946;2023-02-12T07:21:08;1.50;99.90
61400;DHT22;47269;48.182;-1.946;2023-02-12T07:23:35;1.40;99.90
61400;DHT22;47269;48.182;-1.946;2023-02-12T07:26:03;1.60;99.90
61400;DHT22;47269;48.182;-1.946;2023-02-12T07:28:29;1.60;99.90
61400;DHT22;47269;48.182;-1.946;2023-02-12T07:30:59;1.50;99.90
61400;DHT22;47269;48.182;-1.946;2023-02-12T07:33:24;1.40;99.90
61400;DHT22;47269;48.182;-1.946;2023-02-12T07:35:50;1.50;99.90
61400;DHT22;47269;48.182;-1.946;2023-02-12T07:38:16;1.50;99.90
61400;DHT22;47269;48.182;-1.946;2023-02-12T07:40:42;1.30;99.90
61400;DHT22;47269;48.182;-1.946;2023-02-12T07:43:07;1.30;99.90
61400;DHT22;47269;48.182;-1.946;2023-02-12T07:45:33;1.30;99.90
61400;DHT22;47269;48.182;-1.946;2023-02-12T07:47:59;1.40;99.90
61400;DHT22;47269;48.182;-1.946;2023-02-12T07:50:24;1.40;99.90
61400;DHT22;47269;48.182;-1.946;2023-02-12T07:52:50;1.60;99.90
61400;DHT22;47269;48.182;-1.946;2023-02-12T07:55:16;1.90;99.90
61400;DHT22;47269;48.182;-1.946;2023-02-12T07:57:42;1.90;99.90
61400;DHT22;47269;48.182;-1.946;2023-02-12T08:00:08;1.90;99.90
61400;DHT22;47269;48.182;-1.946;2023-02-12T08:02:34;2.00;99.90
61400;DHT22;47269;48.182;-1.946;2023-02-12T08:05:00;2.10;99.90
61400;DHT22;47269;48.182;-1.946;2023-02-12T08:07:26;2.40;99.90
61400;DHT22;47269;48.182;-1.946;2023-02-12T08:09:52;2.30;99.90
61400;DHT22;47269;48.182;-1.946;2023-02-12T08:12:18;2.40;99.90
61400;DHT22;47269;48.182;-1.946;2023-02-12T08:14:43;2.50;99.90
61400;DHT22;47269;48.182;-1.946;2023-02-12T08:17:10;2.60;99.90
61400;DHT22;47269;48.182;-1.946;2023-02-12T08:19:36;2.60;99.90
61400;DHT22;47269;48.182;-1.946;2023-02-12T08:22:02;2.60;99.90
61400;DHT22;47269;48.182;-1.946;2023-02-12T08:24:28;2.60;99.90
61400;DHT22;47269;48.182;-1.946;2023-02-12T08:26:55;2.80;99.90
61400;DHT22;47269;48.182;-1.946;2023-02-12T08:29:27;2.90;99.90
61400;DHT22;47269;48.182;-1.946;2023-02-12T08:32:01;2.90;99.90
61400;DHT22;47269;48.182;-1.946;2023-02-12T08:34:32;3.30;99.90
61400;DHT22;47269;48.182;-1.946;2023-02-12T08:36:58;3.50;99.90
61400;DHT22;47269;48.182;-1.946;2023-02-12T08:39:25;3.60;99.90
61400;DHT22;47269;48.182;-1.946;2023-02-12T08:41:53;3.80;99.90
61400;DHT22;47269;48.182;-1.946;2023-02-12T08:44:19;3.80;99.90
61400;DHT22;47269;48.182;-1.946;2023-02-12T08:46:47;3.80;99.90
61400;DHT22;47269;48.182;-1.946;2023-02-12T08:49:17;3.80;99.90
61400;DHT22;47269;48.182;-1.946;2023-02-12T08:51:45;3.90;99.90
61400;DHT22;47269;48.182;-1.946;2023-02-12T08:54:15;4.00;99.90
61400;DHT22;47269;48.182;-1.946;2023-02-12T08:56:42;4.00;99.90
61400;DHT22;47269;48.182;-1.946;2023-02-12T08:59:11;4.10;99.90
61400;DHT22;47269;48.182;-1.946;2023-02-12T09:01:37;4.20;99.90
61400;DHT22;47269;48.182;-1.946;2023-02-12T09:04:04;4.30;99.90
61400;DHT22;47269;48.182;-1.946;2023-02-12T09:06:32;4.40;99.90
61400;DHT22;47269;48.182;-1.946;2023-02-12T09:08:58;4.50;99.90
61400;DHT22;47269;48.182;-1.946;2023-02-12T09:11:26;4.60;99.90
61400;DHT22;47269;48.182;-1.946;2023-02-12T09:13:58;4.70;99.90
61400;DHT22;47269;48.182;-1.946;2023-02-12T09:16:26;4.80;99.90
61400;DHT22;47269;48.182;-1.946;2023-02-12T09:18:52;4.90;99.90
61400;DHT22;47269;48.182;-1.946;2023-02-12T09:21:19;5.10;99.90
61400;DHT22;47269;48.182;-1.946;2023-02-12T09:23:46;5.20;99.90
61400;DHT22;47269;48.182;-1.946;2023-02-12T09:26:14;5.50;99.90
61400;DHT22;47269;48.182;-1.946;2023-02-12T09:28:40;5.80;99.90
61400;DHT22;47269;48.182;-1.946;2023-02-12T09:31:07;6.10;99.90
61400;DHT22;47269;48.182;-1.946;2023-02-12T09:33:34;6.20;99.90
61400;DHT22;47269;48.182;-1.946;2023-02-12T09:36:04;6.40;99.90
61400;DHT22;47269;48.182;-1.946;2023-02-12T09:38:30;6.20;99.90
61400;DHT22;47269;48.182;-1.946;2023-02-12T09:44:05;6.30;99.90
61400;DHT22;47269;48.182;-1.946;2023-02-12T09:47:16;7.20;99.90
61400;DHT22;47269;48.182;-1.946;2023-02-12T09:50:10;7.00;99.90
61400;DHT22;47269;48.182;-1.946;2023-02-12T09:52:38;6.90;99.90
61400;DHT22;47269;48.182;-1.946;2023-02-12T09:55:04;6.40;99.90
61400;DHT22;47269;48.182;-1.946;2023-02-12T09:57:35;6.30;99.90
61400;DHT22;47269;48.182;-1.946;2023-02-12T10:00:10;6.40;99.90
61400;DHT22;47269;48.182;-1.946;2023-02-12T10:02:39;6.80;99.90
61400;DHT22;47269;48.182;-1.946;2023-02-12T10:05:18;6.50;99.90
61400;DHT22;47269;48.182;-1.946;2023-02-12T10:13:07;7.90;99.90
61400;DHT22;47269;48.182;-1.946;2023-02-12T10:26:18;6.20;99.90
61400;DHT22;47269;48.182;-1.946;2023-02-12T10:28:46;6.10;99.90
61400;DHT22;47269;48.182;-1.946;2023-02-12T10:33:44;6.00;99.90
61400;DHT22;47269;48.182;-1.946;2023-02-12T10:39:01;6.10;99.90
61400;DHT22;47269;48.182;-1.946;2023-02-12T10:41:29;6.20;99.90
61400;DHT22;47269;48.182;-1.946;2023-02-12T10:43:55;6.30;99.90
61400;DHT22;47269;48.182;-1.946;2023-02-12T10:46:21;6.30;99.90
61400;DHT22;47269;48.182;-1.946;2023-02-12T10:48:49;7.80;99.90
61400;DHT22;47269;48.182;-1.946;2023-02-12T10:56:57;7.00;99.90
61400;DHT22;47269;48.182;-1.946;2023-02-12T10:59:23;6.90;99.90
61400;DHT22;47269;48.182;-1.946;2023-02-12T11:01:49;7.00;99.90
61400;DHT22;47269;48.182;-1.946;2023-02-12T11:04:27;7.40;99.90
61400;DHT22;47269;48.182;-1.946;2023-02-12T11:07:03;7.70;99.90
61400;DHT22;47269;48.182;-1.946;2023-02-12T11:09:40;7.60;99.90
61400;DHT22;47269;48.182;-1.946;2023-02-12T11:12:34;7.40;99.90
61400;DHT22;47269;48.182;-1.946;2023-02-12T11:15:14;7.90;99.90
61400;DHT22;47269;48.182;-1.946;2023-02-12T11:17:43;8.50;99.90
61400;DHT22;47269;48.182;-1.946;2023-02-12T11:22:52;7.70;99.90
61400;DHT22;47269;48.182;-1.946;2023-02-12T11:25:19;8.50;99.90
61400;DHT22;47269;48.182;-1.946;2023-02-12T11:27:59;9.50;99.90
61400;DHT22;47269;48.182;-1.946;2023-02-12T11:30:25;13.80;99.90
61400;DHT22;47269;48.182;-1.946;2023-02-12T11:32:51;14.50;99.90
61400;DHT22;47269;48.182;-1.946;2023-02-12T11:37:57;11.00;99.90
61400;DHT22;47269;48.182;-1.946;2023-02-12T11:40:26;10.10;99.90
61400;DHT22;47269;48.182;-1.946;2023-02-12T11:43:04;10.00;99.90
61400;DHT22;47269;48.182;-1.946;2023-02-12T11:45:34;11.70;99.90
61400;DHT22;47269;48.182;-1.946;2023-02-12T11:48:01;11.70;99.90
61400;DHT22;47269;48.182;-1.946;2023-02-12T11:50:31;10.60;99.90
61400;DHT22;47269;48.182;-1.946;2023-02-12T11:53:06;10.10;99.90
61400;DHT22;47269;48.182;-1.946;2023-02-12T11:55:36;10.50;99.90
61400;DHT22;47269;48.182;-1.946;2023-02-12T12:00:53;13.10;99.90
61400;DHT22;47269;48.182;-1.946;2023-02-12T12:03:44;15.10;99.90
61400;DHT22;47269;48.182;-1.946;2023-02-12T12:12:20;17.00;99.90
61400;DHT22;47269;48.182;-1.946;2023-02-12T12:15:00;15.40;99.90
61400;DHT22;47269;48.182;-1.946;2023-02-12T12:17:52;17.90;99.90
61400;DHT22;47269;48.182;-1.946;2023-02-12T12:20:48;18.10;99.90
61400;DHT22;47269;48.182;-1.946;2023-02-12T12:23:19;17.60;99.90
61400;DHT22;47269;48.182;-1.946;2023-02-12T12:25:55;19.80;99.90
61400;DHT22;47269;48.182;-1.946;2023-02-12T12:29:10;21.40;99.90
61400;DHT22;47269;48.182;-1.946;2023-02-12T12:31:37;21.10;99.90
61400;DHT22;47269;48.182;-1.946;2023-02-12T12:34:10;20.40;99.90
61400;DHT22;47269;48.182;-1.946;2023-02-12T12:51:03;21.10;99.90
61400;DHT22;47269;48.182;-1.946;2023-02-12T13:10:16;21.60;98.50
61400;DHT22;47269;48.182;-1.946;2023-02-12T13:15:36;22.50;97.20
61400;DHT22;47269;48.182;-1.946;2023-02-12T13:20:50;22.30;97.10
61400;DHT22;47269;48.182;-1.946;2023-02-12T13:28:43;23.20;96.50
61400;DHT22;47269;48.182;-1.946;2023-02-12T13:31:15;22.50;95.00
61400;DHT22;47269;48.182;-1.946;2023-02-12T13:33:48;22.20;95.30
61400;DHT22;47269;48.182;-1.946;2023-02-12T13:36:15;22.70;94.90
61400;DHT22;47269;48.182;-1.946;2023-02-12T13:41:30;24.20;93.90
61400;DHT22;47269;48.182;-1.946;2023-02-12T13:44:09;23.70;92.90
61400;DHT22;47269;48.182;-1.946;2023-02-12T13:46:59;22.10;93.60
61400;DHT22;47269;48.182;-1.946;2023-02-12T13:49:37;23.70;93.10
61400;DHT22;47269;48.182;-1.946;2023-02-12T13:52:27;23.60;92.30
61400;DHT22;47269;48.182;-1.946;2023-02-12T13:55:04;24.10;91.30
61400;DHT22;47269;48.182;-1.946;2023-02-12T13:57:35;25.80;91.20
61400;DHT22;47269;48.182;-1.946;2023-02-12T14:00:01;24.60;90.20
61400;DHT22;47269;48.182;-1.946;2023-02-12T14:05:00;23.70;91.60
61400;DHT22;47269;48.182;-1.946;2023-02-12T14:07:44;23.80;91.40
61400;DHT22;47269;48.182;-1.946;2023-02-12T14:10:35;24.90;90.60
61400;DHT22;47269;48.182;-1.946;2023-02-12T14:13:22;25.10;90.00
61400;DHT22;47269;48.182;-1.946;2023-02-12T14:15:54;24.20;88.70
61400;DHT22;47269;48.182;-1.946;2023-02-12T14:18:35;25.30;88.10
61400;DHT22;47269;48.182;-1.946;2023-02-12T14:23:37;24.60;86.70
61400;DHT22;47269;48.182;-1.946;2023-02-12T14:33:49;24.00;88.40
61400;DHT22;47269;48.182;-1.946;2023-02-12T14:41:38;24.10;85.70
61400;DHT22;47269;48.182;-1.946;2023-02-12T14:46:55;25.00;88.30
61400;DHT22;47269;48.182;-1.946;2023-02-12T14:49:38;24.70;87.40
61400;DHT22;47269;48.182;-1.946;2023-02-12T14:54:51;24.90;86.00
61400;DHT22;47269;48.182;-1.946;2023-02-12T14:57:36;24.90;87.40
61400;DHT22;47269;48.182;-1.946;2023-02-12T15:02:35;24.10;86.40
61400;DHT22;47269;48.182;-1.946;2023-02-12T15:05:05;23.70;85.10
61400;DHT22;47269;48.182;-1.946;2023-02-12T15:07:42;23.00;86.80
61400;DHT22;47269;48.182;-1.946;2023-02-12T15:10:16;23.80;86.70
61400;DHT22;47269;48.182;-1.946;2023-02-12T15:15:44;22.40;86.90
61400;DHT22;47269;48.182;-1.946;2023-02-12T15:21:00;23.80;88.70
61400;DHT22;47269;48.182;-1.946;2023-02-12T15:23:43;23.60;88.30
61400;DHT22;47269;48.182;-1.946;2023-02-12T15:26:17;24.40;87.90
61400;DHT22;47269;48.182;-1.946;2023-02-12T15:28:48;23.60;86.00
61400;DHT22;47269;48.182;-1.946;2023-02-12T15:31:17;25.30;87.50
61400;DHT22;47269;48.182;-1.946;2023-02-12T15:33:48;23.90;85.50
61400;DHT22;47269;48.182;-1.946;2023-02-12T15:36:21;24.10;87.00
61400;DHT22;47269;48.182;-1.946;2023-02-12T15:38:52;23.50;87.00
61400;DHT22;47269;48.182;-1.946;2023-02-12T15:43:58;22.70;90.00
61400;DHT22;47269;48.182;-1.946;2023-02-12T15:46:24;22.10;88.90
61400;DHT22;47269;48.182;-1.946;2023-02-12T15:48:50;22.40;89.20
61400;DHT22;47269;48.182;-1.946;2023-02-12T15:51:39;22.30;90.00
61400;DHT22;47269;48.182;-1.946;2023-02-12T15:54:11;22.10;89.90
61400;DHT22;47269;48.182;-1.946;2023-02-12T15:56:40;22.80;90.10
61400;DHT22;47269;48.182;-1.946;2023-02-12T15:59:06;21.80;90.30
61400;DHT22;47269;48.182;-1.946;2023-02-12T16:01:33;21.00;88.80
61400;DHT22;47269;48.182;-1.946;2023-02-12T16:04:04;20.70;89.50
61400;DHT22;47269;48.182;-1.946;2023-02-12T16:06:32;20.60;91.00
61400;DHT22;47269;48.182;-1.946;2023-02-12T16:09:07;20.80;90.80
61400;DHT22;47269;48.182;-1.946;2023-02-12T16:11:34;20.50;91.00
61400;DHT22;47269;48.182;-1.946;2023-02-12T16:14:07;20.90;91.10
61400;DHT22;47269;48.182;-1.946;2023-02-12T16:16:47;20.30;91.60
61400;DHT22;47269;48.182;-1.946;2023-02-12T16:19:23;19.90;92.10
61400;DHT22;47269;48.182;-1.946;2023-02-12T16:22:14;19.00;93.00
61400;DHT22;47269;48.182;-1.946;2023-02-12T16:24:52;17.20;95.80
61400;DHT22;47269;48.182;-1.946;2023-02-12T16:27:24;15.90;99.90
61400;DHT22;47269;48.182;-1.946;2023-02-12T16:29:54;15.10;99.90
61400;DHT22;47269;48.182;-1.946;2023-02-12T16:32:40;13.90;99.90
61400;DHT22;47269;48.182;-1.946;2023-02-12T16:47:49;12.50;99.90
61400;DHT22;47269;48.182;-1.946;2023-02-12T16:50:19;12.40;99.90
61400;DHT22;47269;48.182;-1.946;2023-02-12T16:52:47;12.50;99.90
61400;DHT22;47269;48.182;-1.946;2023-02-12T16:55:15;12.30;99.90
61400;DHT22;47269;48.182;-1.946;2023-02-12T16:57:41;12.20;99.90
61400;DHT22;47269;48.182;-1.946;2023-02-12T17:00:08;12.10;99.90
61400;DHT22;47269;48.182;-1.946;2023-02-12T17:02:35;12.00;99.90
61400;DHT22;47269;48.182;-1.946;2023-02-12T17:05:02;11.80;99.90
61400;DHT22;47269;48.182;-1.946;2023-02-12T17:07:32;11.60;99.90
61400;DHT22;47269;48.182;-1.946;2023-02-12T17:09:58;11.30;99.90
61400;DHT22;47269;48.182;-1.946;2023-02-12T17:12:24;11.20;99.90
61400;DHT22;47269;48.182;-1.946;2023-02-12T17:14:50;11.30;99.90
61400;DHT22;47269;48.182;-1.946;2023-02-12T17:17:16;11.40;99.90
61400;DHT22;47269;48.182;-1.946;2023-02-12T17:19:41;11.10;99.90
61400;DHT22;47269;48.182;-1.946;2023-02-12T17:22:16;11.20;99.90
61400;DHT22;47269;48.182;-1.946;2023-02-12T17:24:42;10.90;99.90
61400;DHT22;47269;48.182;-1.946;2023-02-12T17:27:10;10.80;99.90
61400;DHT22;47269;48.182;-1.946;2023-02-12T17:29:38;10.60;99.90
61400;DHT22;47269;48.182;-1.946;2023-02-12T17:32:03;10.20;99.90
61400;DHT22;47269;48.182;-1.946;2023-02-12T17:34:31;9.90;99.90
61400;DHT22;47269;48.182;-1.946;2023-02-12T17:36:56;9.70;99.90
61400;DHT22;47269;48.182;-1.946;2023-02-12T17:39:22;9.70;99.90
61400;DHT22;47269;48.182;-1.946;2023-02-12T17:41:48;9.60;99.90
61400;DHT22;47269;48.182;-1.946;2023-02-12T17:44:14;9.40;99.90
61400;DHT22;47269;48.182;-1.946;2023-02-12T17:46:41;9.20;99.90
61400;DHT22;47269;48.182;-1.946;2023-02-12T17:49:07;9.10;99.90
61400;DHT22;47269;48.182;-1.946;2023-02-12T17:51:33;9.10;99.90
61400;DHT22;47269;48.182;-1.946;2023-02-12T17:53:58;8.90;99.90
61400;DHT22;47269;48.182;-1.946;2023-02-12T17:56:24;8.90;99.90
61400;DHT22;47269;48.182;-1.946;2023-02-12T17:58:50;8.80;99.90
61400;DHT22;47269;48.182;-1.946;2023-02-12T18:01:19;8.70;99.90
61400;DHT22;47269;48.182;-1.946;2023-02-12T18:03:45;8.50;99.90
61400;DHT22;47269;48.182;-1.946;2023-02-12T18:06:11;8.30;99.90
61400;DHT22;47269;48.182;-1.946;2023-02-12T18:08:39;8.40;99.90
61400;DHT22;47269;48.182;-1.946;2023-02-12T18:11:06;8.20;99.90
61400;DHT22;47269;48.182;-1.946;2023-02-12T18:13:33;8.10;99.90
61400;DHT22;47269;48.182;-1.946;2023-02-12T18:15:59;8.20;99.90
61400;DHT22;47269;48.182;-1.946;2023-02-12T18:18:24;8.00;99.90
61400;DHT22;47269;48.182;-1.946;2023-02-12T18:20:50;8.00;99.90
61400;DHT22;47269;48.182;-1.946;2023-02-12T18:23:16;8.00;99.90
61400;DHT22;47269;48.182;-1.946;2023-02-12T18:25:43;7.80;99.90
61400;DHT22;47269;48.182;-1.946;2023-02-12T18:28:09;7.70;99.90
61400;DHT22;47269;48.182;-1.946;2023-02-12T18:30:36;7.70;99.90
61400;DHT22;47269;48.182;-1.946;2023-02-12T18:33:06;7.60;99.90
61400;DHT22;47269;48.182;-1.946;2023-02-12T18:35:32;7.60;99.90
61400;DHT22;47269;48.182;-1.946;2023-02-12T18:37:58;7.60;99.90
61400;DHT22;47269;48.182;-1.946;2023-02-12T18:40:25;7.60;99.90
61400;DHT22;47269;48.182;-1.946;2023-02-12T18:42:51;7.50;99.90
61400;DHT22;47269;48.182;-1.946;2023-02-12T18:45:17;7.50;99.90
61400;DHT22;47269;48.182;-1.946;2023-02-12T18:47:44;7.50;99.90
61400;DHT22;47269;48.182;-1.946;2023-02-12T18:50:10;7.40;99.90
61400;DHT22;47269;48.182;-1.946;2023-02-12T18:52:35;7.40;99.90
61400;DHT22;47269;48.182;-1.946;2023-02-12T18:55:03;7.50;99.90
61400;DHT22;47269;48.182;-1.946;2023-02-12T18:57:28;7.30;99.90
61400;DHT22;47269;48.182;-1.946;2023-02-12T18:59:55;7.20;99.90
61400;DHT22;47269;48.182;-1.946;2023-02-12T19:02:21;7.10;99.90
61400;DHT22;47269;48.182;-1.946;2023-02-12T19:04:46;6.70;99.90
61400;DHT22;47269;48.182;-1.946;2023-02-12T19:07:12;6.50;99.90
61400;DHT22;47269;48.182;-1.946;2023-02-12T19:09:38;6.30;99.90
61400;DHT22;47269;48.182;-1.946;2023-02-12T19:12:03;6.50;99.90
61400;DHT22;47269;48.182;-1.946;2023-02-12T19:14:31;6.30;99.90
61400;DHT22;47269;48.182;-1.946;2023-02-12T19:16:57;6.30;99.90
61400;DHT22;47269;48.182;-1.946;2023-02-12T19:19:23;6.10;99.90
61400;DHT22;47269;48.182;-1.946;2023-02-12T19:21:48;6.10;99.90
61400;DHT22;47269;48.182;-1.946;2023-02-12T19:24:15;5.90;99.90
61400;DHT22;47269;48.182;-1.946;2023-02-12T19:26:42;6.10;99.90
61400;DHT22;47269;48.182;-1.946;2023-02-12T19:29:09;6.10;99.90
61400;DHT22;47269;48.182;-1.946;2023-02-12T19:31:40;6.10;99.90
61400;DHT22;47269;48.182;-1.946;2023-02-12T19:34:09;6.20;99.90
61400;DHT22;47269;48.182;-1.946;2023-02-12T19:36:39;6.10;99.90
61400;DHT22;47269;48.182;-1.946;2023-02-12T19:39:05;5.80;99.90
61400;DHT22;47269;48.182;-1.946;2023-02-12T19:41:30;5.90;99.90
61400;DHT22;47269;48.182;-1.946;2023-02-12T19:43:59;5.90;99.90
61400;DHT22;47269;48.182;-1.946;2023-02-12T19:46:28;5.80;99.90
61400;DHT22;47269;48.182;-1.946;2023-02-12T19:48:57;5.80;99.90
61400;DHT22;47269;48.182;-1.946;2023-02-12T19:51:23;5.70;99.90
61400;DHT22;47269;48.182;-1.946;2023-02-12T19:53:53;5.40;99.90
61400;DHT22;47269;48.182;-1.946;2023-02-12T19:56:20;5.30;99.90
61400;DHT22;47269;48.182;-1.946;2023-02-12T19:58:46;5.40;99.90
61400;DHT22;47269;48.182;-1.946;2023-02-12T20:01:15;5.40;99.90
61400;DHT22;47269;48.182;-1.946;2023-02-12T20:03:41;5.20;99.90
61400;DHT22;47269;48.182;-1.946;2023-02-12T20:06:13;5.10;99.90
61400;DHT22;47269;48.182;-1.946;2023-02-12T20:08:40;5.10;99.90
61400;DHT22;47269;48.182;-1.946;2023-02-12T20:11:13;4.80;99.90
61400;DHT22;47269;48.182;-1.946;2023-02-12T20:13:39;4.60;99.90
61400;DHT22;47269;48.182;-1.946;2023-02-12T20:16:08;4.80;99.90
61400;DHT22;47269;48.182;-1.946;2023-02-12T20:18:34;4.80;99.90
61400;DHT22;47269;48.182;-1.946;2023-02-12T20:21:00;4.90;99.90
61400;DHT22;47269;48.182;-1.946;2023-02-12T20:23:31;5.20;99.90
61400;DHT22;47269;48.182;-1.946;2023-02-12T20:25:57;5.10;99.90
61400;DHT22;47269;48.182;-1.946;2023-02-12T20:28:23;5.00;99.90
61400;DHT22;47269;48.182;-1.946;2023-02-12T20:30:48;5.00;99.90
61400;DHT22;47269;48.182;-1.946;2023-02-12T20:33:14;5.00;99.90
61400;DHT22;47269;48.182;-1.946;2023-02-12T20:35:40;5.00;99.90
61400;DHT22;47269;48.182;-1.946;2023-02-12T20:38:06;5.00;99.90
61400;DHT22;47269;48.182;-1.946;2023-02-12T20:40:32;5.00;99.90
61400;DHT22;47269;48.182;-1.946;2023-02-12T20:42:59;5.00;99.90
61400;DHT22;47269;48.182;-1.946;2023-02-12T20:45:25;5.00;99.90
61400;DHT22;47269;48.182;-1.946;2023-02-12T20:47:50;4.80;99.90
61400;DHT22;47269;48.182;-1.946;2023-02-12T20:50:16;4.60;99.90
61400;DHT22;47269;48.182;-1.946;2023-02-12T20:52:42;4.60;99.90
61400;DHT22;47269;48.182;-1.946;2023-02-12T20:55:08;4.40;99.90
61400;DHT22;47269;48.182;-1.946;2023-02-12T20:57:34;4.40;99.90
61400;DHT22;47269;48.182;-1.946;2023-02-12T21:00:00;4.40;99.90
61400;DHT22;47269;48.182;-1.946;2023-02-12T21:02:27;4.30;99.90
61400;DHT22;47269;48.182;-1.946;2023-02-12T21:04:53;4.10;99.90
61400;DHT22;47269;48.182;-1.946;2023-02-12T21:07:20;4.20;99.90
61400;DHT22;47269;48.182;-1.946;2023-02-12T21:09:46;4.40;99.90
61400;DHT22;47269;48.182;-1.946;2023-02-12T21:12:12;4.80;99.90
61400;DHT22;47269;48.182;-1.946;2023-02-12T21:14:37;5.10;99.90
61400;DHT22;47269;48.182;-1.946;2023-02-12T21:17:03;5.10;99.90
61400;DHT22;47269;48.182;-1.946;2023-02-12T21:19:29;5.00;99.90
61400;DHT22;47269;48.182;-1.946;2023-02-12T21:21:54;5.10;99.90
61400;DHT22;47269;48.182;-1.946;2023-02-12T21:24:23;5.30;99.90
61400;DHT22;47269;48.182;-1.946;2023-02-12T21:26:50;5.20;99.90
61400;DHT22;47269;48.182;-1.946;2023-02-12T21:29:16;5.30;99.90
61400;DHT22;47269;48.182;-1.946;2023-02-12T21:31:44;5.30;99.90
61400;DHT22;47269;48.182;-1.946;2023-02-12T21:34:16;5.30;99.90
61400;DHT22;47269;48.182;-1.946;2023-02-12T21:36:43;5.30;99.90
61400;DHT22;47269;48.182;-1.946;2023-02-12T21:39:12;5.10;99.90
61400;DHT22;47269;48.182;-1.946;2023-02-12T21:41:40;5.20;99.90
61400;DHT22;47269;48.182;-1.946;2023-02-12T21:44:09;5.10;99.90
61400;DHT22;47269;48.182;-1.946;2023-02-12T21:46:36;5.00;99.90
61400;DHT22;47269;48.182;-1.946;2023-02-12T21:49:02;5.10;99.90
61400;DHT22;47269;48.182;-1.946;2023-02-12T21:51:34;5.20;99.90
61400;DHT22;47269;48.182;-1.946;2023-02-12T21:54:02;5.20;99.90
61400;DHT22;47269;48.182;-1.946;2023-02-12T21:56:28;5.30;99.90
61400;DHT22;47269;48.182;-1.946;2023-02-12T21:58:56;5.30;99.90
61400;DHT22;47269;48.182;-1.946;2023-02-12T22:01:25;5.40;99.90
61400;DHT22;47269;48.182;-1.946;2023-02-12T22:03:51;5.40;99.90
61400;DHT22;47269;48.182;-1.946;2023-02-12T22:06:19;5.40;99.90
61400;DHT22;47269;48.182;-1.946;2023-02-12T22:08:47;5.40;99.90
61400;DHT22;47269;48.182;-1.946;2023-02-12T22:11:14;5.40;99.90
61400;DHT22;47269;48.182;-1.946;2023-02-12T22:13:40;5.30;99.90
61400;DHT22;47269;48.182;-1.946;2023-02-12T22:18:36;5.30;99.90
61400;DHT22;47269;48.182;-1.946;2023-02-12T22:21:02;5.20;99.90
61400;DHT22;47269;48.182;-1.946;2023-02-12T22:23:28;5.20;99.90
61400;DHT22;47269;48.182;-1.946;2023-02-12T22:25:54;5.30;99.90
61400;DHT22;47269;48.182;-1.946;2023-02-12T22:28:20;5.30;99.90
61400;DHT22;47269;48.182;-1.946;2023-02-12T22:30:46;5.30;99.90
61400;DHT22;47269;48.182;-1.946;2023-02-12T22:33:11;5.20;99.90
61400;DHT22;47269;48.182;-1.946;2023-02-12T22:35:37;5.20;99.90
61400;DHT22;47269;48.182;-1.946;2023-02-12T22:38:03;5.20;99.90
61400;DHT22;47269;48.182;-1.946;2023-02-12T22:40:28;5.30;99.90
61400;DHT22;47269;48.182;-1.946;2023-02-12T22:42:54;5.30;99.90
61400;DHT22;47269;48.182;-1.946;2023-02-12T22:45:20;5.20;99.90
61400;DHT22;47269;48.182;-1.946;2023-02-12T22:47:45;5.30;99.90
61400;DHT22;47269;48.182;-1.946;2023-02-12T22:50:11;5.30;99.90
61400;DHT22;47269;48.182;-1.946;2023-02-12T22:52:37;5.20;99.90
61400;DHT22;47269;48.182;-1.946;2023-02-12T22:55:02;5.20;99.90
61400;DHT22;47269;48.182;-1.946;2023-02-12T22:57:28;5.20;99.90
61400;DHT22;47269;48.182;-1.946;2023-02-12T22:59:54;5.20;99.90
